Aérodrome :
LOGIN :

S'inscrire | Disclaimer

   EN    FR    IT 

 










Légende :    VFR   VFR Marginal   IFR   IFR Intensif   IFR Très Intensif
Visi : 
Plafond : 
>= 8 km
>= 3000ft
5 à 8 km
1000 à 3000 ft
1500m à 5 km
500 à 1000 ft
800 à 1500m
200 à 500 ft
< 800m
< 200 ft
Symboles :   Orages  Brouillard  Fortes neiges  Fortes précipitations  Vent > 20 kt
SIGMETs :   Divers  Orages  Givrage  Turbulence  Onde Orograph.  Cendres Volcan.






- Altitude de l'aérodrome : 390 ft
- Code IATA : NQY


EGHQ - Newquay

DERNIER METAR :
  • 070750Z AUTO 35009KT 9999 SCT008/// OVC046/// 12/10 Q1010 REDZ

METARs EXPIRÉS :
  • 070720Z AUTO 35009KT 9999 OVC010/// 11/10 Q1010 REDZ
  • 070650Z AUTO 35008KT 9999 FEW008/// BKN021/// BKN046/// 11/10 Q1009
  • 070620Z AUTO 36007KT 320V020 9999 BKN007/// BKN031/// 11/10 Q1009
  • 070550Z AUTO 35007KT 9999 BKN008/// 11/10 Q1008
  • 070520Z AUTO 36005KT 9999 BKN012/// 11/10 Q1008 RERA

TAF TAF EGHQ
Valide du 07 à 03h jusqu'au 07 à 12h UTC


070157Z 0703/0712 35010KT 9999 SCT008 BKN015
TEMPO 0703/0712 8000 -DZ FEW003 BKN008
PROB40
TEMPO 0703/0707 4000 RADZ BKN003



MET'MAP, la Météo Aéronautique d'un coup d'oeil ! - Copyright ORBIFLY Décembre 2007 - Disclaimer

ORBIFLY MET'MAP TEAM :

Programmation & Développement : Alexandra Zaïnal
Sur une idée originale de : Baudouin d'Aumeries
Assistance à la programmation : Marc-Olivier Méhu
Soutien technique & logistique : Manuel Goepfert

Contact : metmap@orbifly.com




SOURCES & CREDITS :

   NOAA